createdAt,value
2018-02-14T00:02:26.348Z,-1.75
2018-02-14T00:04:57.708Z,-1.58
2018-02-14T00:07:28.544Z,-2.18
2018-02-14T00:09:59.609Z,-2.13
2018-02-14T00:12:30.874Z,-1.95
2018-02-14T00:15:02.329Z,-2.03
2018-02-14T00:17:33.499Z,-2.01
2018-02-14T00:20:04.537Z,-2.42
2018-02-14T00:22:35.758Z,-2.24
2018-02-14T00:25:06.584Z,-2.42
2018-02-14T00:27:38.045Z,-2.54
2018-02-14T00:30:10.069Z,-2.46
2018-02-14T00:32:41.400Z,-2.53
2018-02-14T00:35:12.749Z,-2.20
2018-02-14T00:37:44.628Z,-2.25
2018-02-14T00:40:16.450Z,-1.99
2018-02-14T00:42:48.004Z,-2.13
2018-02-14T00:45:18.889Z,-2.10
2018-02-14T00:47:50.009Z,-2.57
2018-02-14T00:50:21.587Z,-2.19
2018-02-14T00:52:53.096Z,-2.50
2018-02-14T00:55:24.462Z,-2.23
2018-02-14T00:57:56.038Z,-2.35
2018-02-14T01:00:27.296Z,-2.37
2018-02-14T01:02:58.695Z,-2.49
2018-02-14T01:05:29.883Z,-2.50
2018-02-14T01:08:01.497Z,-2.51
2018-02-14T01:10:33.564Z,-2.50
2018-02-14T01:13:04.976Z,-2.51
2018-02-14T01:15:38.584Z,-2.60
2018-02-14T01:18:10.150Z,-2.66
2018-02-14T01:20:44.992Z,-2.63
2018-02-14T01:23:16.399Z,-2.72
2018-02-14T01:25:47.812Z,-2.33
2018-02-14T01:28:20.672Z,-3.13
2018-02-14T01:30:52.121Z,-3.01
2018-02-14T01:33:23.704Z,-2.89
2018-02-14T01:35:54.553Z,-3.13
2018-02-14T01:38:26.080Z,-3.33
2018-02-14T01:40:57.626Z,-3.73
2018-02-14T01:43:29.048Z,-3.95
2018-02-14T01:46:00.247Z,-3.44
2018-02-14T01:48:31.827Z,-4.21
2018-02-14T01:51:03.390Z,-3.59
2018-02-14T01:53:34.977Z,-3.67
2018-02-14T01:56:06.354Z,-3.43
2018-02-14T01:58:38.322Z,-3.54
2018-02-14T02:01:10.084Z,-3.46
2018-02-14T02:03:41.650Z,-3.60
2018-02-14T02:06:13.196Z,-3.72
2018-02-14T02:08:44.870Z,-3.70
2018-02-14T02:11:16.277Z,-3.74
2018-02-14T02:13:47.788Z,-3.32
2018-02-14T02:16:19.300Z,-3.22
2018-02-14T02:18:50.573Z,-3.21
2018-02-14T02:21:22.516Z,-3.22
2018-02-14T02:23:53.639Z,-2.97
2018-02-14T02:26:25.244Z,-3.03
2018-02-14T02:28:56.649Z,-2.97
2018-02-14T02:31:27.597Z,-3.02
2018-02-14T02:33:58.892Z,-3.39
2018-02-14T02:36:30.795Z,-3.25
2018-02-14T02:39:02.509Z,-3.40
2018-02-14T02:41:34.213Z,-3.51
2018-02-14T02:44:06.308Z,-3.52
2018-02-14T02:46:38.032Z,-3.58
2018-02-14T02:49:09.149Z,-3.59
2018-02-14T02:51:41.148Z,-3.61
2018-02-14T02:54:12.924Z,-3.53
2018-02-14T02:56:44.565Z,-3.19
2018-02-14T02:59:16.295Z,-3.31
2018-02-14T03:01:48.316Z,-3.07
2018-02-14T03:04:19.751Z,-3.51
2018-02-14T03:06:51.426Z,-3.10
2018-02-14T03:09:23.184Z,-3.32
2018-02-14T03:11:54.739Z,-3.29
2018-02-14T03:14:26.179Z,-3.75
2018-02-14T03:16:57.818Z,-4.01
2018-02-14T03:19:29.337Z,-3.84
2018-02-14T03:22:01.235Z,-3.62
2018-02-14T03:24:32.829Z,-3.30
2018-02-14T03:27:04.840Z,-3.41
2018-02-14T03:29:36.634Z,-3.32
2018-02-14T03:32:08.793Z,-3.36
2018-02-14T03:34:40.672Z,-3.56
2018-02-14T03:37:12.279Z,-3.44
2018-02-14T03:39:43.904Z,-3.48
2018-02-14T03:42:15.699Z,-3.55
2018-02-14T03:44:47.366Z,-3.72
2018-02-14T03:47:18.992Z,-3.62
2018-02-14T03:49:50.988Z,-3.51
2018-02-14T03:52:22.644Z,-3.69
2018-02-14T03:54:54.460Z,-3.65
2018-02-14T03:57:26.485Z,-3.70
2018-02-14T03:59:58.323Z,-3.68
2018-02-14T04:02:30.107Z,-3.85
2018-02-14T04:05:02.184Z,-3.62
2018-02-14T04:07:34.008Z,-3.60
2018-02-14T04:10:05.628Z,-3.63
2018-02-14T04:12:37.232Z,-3.62
2018-02-14T04:15:08.544Z,-3.80
2018-02-14T04:17:39.987Z,-3.61
2018-02-14T04:20:11.451Z,-3.77
2018-02-14T04:22:43.236Z,-4.06
2018-02-14T04:25:15.044Z,-3.65
2018-02-14T04:27:46.983Z,-3.71
2018-02-14T04:30:18.979Z,-3.73
2018-02-14T04:32:50.698Z,-4.10
2018-02-14T04:35:22.800Z,-3.68
2018-02-14T04:37:54.436Z,-3.71
2018-02-14T04:40:26.060Z,-3.71
2018-02-14T04:42:58.300Z,-4.02
2018-02-14T04:45:29.884Z,-4.13
2018-02-14T04:48:01.753Z,-4.21
2018-02-14T04:50:33.275Z,-3.91
2018-02-14T04:53:04.753Z,-3.77
2018-02-14T04:55:36.187Z,-3.78
2018-02-14T04:58:07.856Z,-3.96
2018-02-14T05:00:39.581Z,-4.07
2018-02-14T05:03:11.658Z,-4.28
2018-02-14T05:05:43.363Z,-4.31
2018-02-14T05:08:15.199Z,-4.49
2018-02-14T05:10:47.156Z,-4.66
2018-02-14T05:13:19.048Z,-4.83
2018-02-14T05:15:50.680Z,-5.23
2018-02-14T05:18:22.283Z,-5.05
2018-02-14T05:20:53.938Z,-4.96
2018-02-14T05:23:26.551Z,-5.11
2018-02-14T05:25:58.532Z,-5.10
2018-02-14T05:28:32.870Z,-4.86
2018-02-14T05:31:08.412Z,-4.80
2018-02-14T05:33:39.775Z,-4.59
2018-02-14T05:36:11.471Z,-4.41
2018-02-14T05:38:43.727Z,-4.60
2018-02-14T05:41:15.340Z,-4.76
2018-02-14T05:43:47.896Z,-5.04
2018-02-14T05:46:19.651Z,-4.89
2018-02-14T05:48:51.209Z,-4.87
2018-02-14T05:51:22.849Z,-4.45
2018-02-14T05:53:53.892Z,-4.39
2018-02-14T05:56:25.577Z,-4.78
2018-02-14T05:58:57.071Z,-5.13
2018-02-14T06:01:30.143Z,-4.88
2018-02-14T06:04:01.476Z,-4.85
2018-02-14T06:06:35.001Z,-4.61
2018-02-14T06:09:06.592Z,-4.84
2018-02-14T06:11:39.691Z,-4.80
2018-02-14T06:14:11.300Z,-4.70
2018-02-14T06:16:43.501Z,-4.92
2018-02-14T06:19:15.012Z,-4.98
2018-02-14T06:21:46.091Z,-4.83
2018-02-14T06:24:17.476Z,-4.54
2018-02-14T06:26:48.600Z,-4.58
2018-02-14T06:29:20.202Z,-4.64
2018-02-14T06:31:51.855Z,-4.58
2018-02-14T06:34:23.655Z,-4.53
2018-02-14T06:36:55.164Z,-4.53
2018-02-14T06:39:26.468Z,-4.72
2018-02-14T06:41:57.581Z,-4.60
2018-02-14T06:44:28.651Z,-4.69
2018-02-14T06:46:59.788Z,-4.67
2018-02-14T06:49:31.372Z,-4.63
2018-02-14T06:52:02.743Z,-4.65
2018-02-14T06:54:34.553Z,-4.80
2018-02-14T06:57:06.265Z,-4.65
2018-02-14T06:59:38.140Z,-4.74
2018-02-14T07:02:09.872Z,-4.66
2018-02-14T07:04:40.891Z,-4.67
2018-02-14T07:07:12.016Z,-4.74
2018-02-14T07:09:43.825Z,-4.91
2018-02-14T07:12:15.467Z,-5.15
2018-02-14T07:14:46.784Z,-5.28
2018-02-14T07:17:17.897Z,-5.08
2018-02-14T07:19:49.102Z,-4.73
2018-02-14T07:22:20.748Z,-4.80
2018-02-14T07:24:52.150Z,-4.72
2018-02-14T07:27:23.576Z,-4.42
2018-02-14T07:29:54.733Z,-4.33
2018-02-14T07:32:25.796Z,-4.55
2018-02-14T07:34:57.318Z,-4.52
2018-02-14T07:37:28.443Z,-4.54
2018-02-14T07:39:59.622Z,-4.48
2018-02-14T07:42:31.541Z,-4.15
2018-02-14T07:45:03.181Z,-4.27
2018-02-14T07:47:35.602Z,-4.32
2018-02-14T07:50:05.992Z,-4.26
2018-02-14T07:52:38.092Z,-3.97
2018-02-14T07:55:09.196Z,-4.16
2018-02-14T07:57:40.292Z,-4.31
2018-02-14T08:00:11.620Z,-4.63
2018-02-14T08:02:43.040Z,-4.18
2018-02-14T08:05:14.056Z,-3.51
2018-02-14T08:07:45.441Z,-3.32
2018-02-14T08:10:16.855Z,-3.78
2018-02-14T08:12:48.147Z,-4.08
2018-02-14T08:15:19.484Z,-3.76
2018-02-14T08:17:50.328Z,-3.84
2018-02-14T08:20:21.068Z,-3.09
2018-02-14T08:22:52.492Z,-3.00
2018-02-14T08:25:23.896Z,-3.12
2018-02-14T08:27:55.084Z,-2.60
2018-02-14T08:30:26.587Z,-2.82
2018-02-14T08:32:57.639Z,-2.67
2018-02-14T08:35:28.846Z,-2.08
2018-02-14T08:37:59.657Z,-1.62
2018-02-14T08:40:30.684Z,-1.26
2018-02-14T08:43:01.494Z,-1.35
2018-02-14T08:45:32.265Z,-1.28
2018-02-14T08:48:03.320Z,-1.63
2018-02-14T08:50:34.084Z,-1.84
2018-02-14T08:53:04.942Z,-2.47
2018-02-14T08:55:35.961Z,-2.45
2018-02-14T08:58:07.500Z,-2.22
2018-02-14T09:00:39.091Z,-2.76
2018-02-14T09:03:10.012Z,-2.33
2018-02-14T09:05:40.766Z,-2.52
2018-02-14T09:08:11.988Z,-2.11
2018-02-14T09:10:43.423Z,-2.29
2018-02-14T09:13:14.646Z,-1.88
2018-02-14T09:15:46.211Z,-2.18
2018-02-14T09:18:17.068Z,-2.32
2018-02-14T09:20:47.840Z,-2.19
2018-02-14T09:23:18.923Z,-2.05
2018-02-14T09:25:50.192Z,-1.42
2018-02-14T09:28:21.027Z,-1.45
2018-02-14T09:30:52.117Z,-0.57
2018-02-14T09:33:22.911Z,-0.26
2018-02-14T09:35:54.405Z,-0.28
2018-02-14T09:38:25.798Z,-1.25
2018-02-14T09:40:57.092Z,-0.72
2018-02-14T09:43:28.617Z,0.36
2018-02-14T09:45:59.660Z,-0.49
2018-02-14T09:48:30.431Z,0.64
2018-02-14T09:51:01.472Z,-0.19
2018-02-14T09:53:32.342Z,-0.68
2018-02-14T09:56:03.160Z,-0.49
2018-02-14T09:58:34.188Z,-0.68
2018-02-14T10:01:05.002Z,-0.70
2018-02-14T10:03:35.837Z,-0.58
2018-02-14T10:06:07.168Z,-0.29
2018-02-14T10:08:37.939Z,0.33
2018-02-14T10:11:08.705Z,0.04
2018-02-14T10:13:40.008Z,0.63
2018-02-14T10:16:10.703Z,0.99
2018-02-14T10:18:41.548Z,0.55
2018-02-14T10:21:12.575Z,0.89
2018-02-14T10:23:43.363Z,0.41
2018-02-14T10:26:14.408Z,0.97
2018-02-14T10:28:45.198Z,1.32
2018-02-14T10:31:16.043Z,1.38
2018-02-14T10:33:47.203Z,0.82
2018-02-14T10:36:17.984Z,0.93
2018-02-14T10:38:49.233Z,1.02
2018-02-14T10:41:20.352Z,1.39
2018-02-14T10:43:51.150Z,2.18
2018-02-14T10:46:22.447Z,0.85
2018-02-14T10:48:53.423Z,2.10
2018-02-14T10:51:24.195Z,1.99
2018-02-14T10:53:54.943Z,1.11
2018-02-14T10:56:26.115Z,1.42
2018-02-14T10:58:57.466Z,1.98
2018-02-14T11:01:32.336Z,1.71
2018-02-14T11:04:06.978Z,2.88
2018-02-14T11:06:38.408Z,3.01
2018-02-14T11:09:09.144Z,3.20
2018-02-14T11:11:40.504Z,2.46
2018-02-14T11:14:11.904Z,2.10
2018-02-14T11:16:42.728Z,2.23
2018-02-14T11:19:13.548Z,2.31
2018-02-14T11:21:44.672Z,2.70
2018-02-14T11:24:15.709Z,2.11
2018-02-14T11:26:46.475Z,3.09
2018-02-14T11:29:17.532Z,3.49
2018-02-14T11:31:48.327Z,3.64
2018-02-14T11:34:19.116Z,3.12
2018-02-14T11:36:50.281Z,3.39
2018-02-14T11:39:21.062Z,3.73
2018-02-14T11:41:52.184Z,3.69
2018-02-14T11:44:23.004Z,3.02
2018-02-14T11:46:54.105Z,3.85
2018-02-14T11:49:25.160Z,3.12
2018-02-14T11:51:55.955Z,2.58
2018-02-14T11:54:26.752Z,2.45
2018-02-14T11:56:57.795Z,2.73
2018-02-14T11:59:28.539Z,3.06
2018-02-14T12:01:59.284Z,3.03
2018-02-14T12:04:30.164Z,2.95
2018-02-14T12:07:00.923Z,3.97
2018-02-14T12:09:32.796Z,3.56
2018-02-14T12:12:03.916Z,3.48
2018-02-14T12:14:34.724Z,4.16
2018-02-14T12:17:05.856Z,4.21
2018-02-14T12:19:36.616Z,4.05
2018-02-14T12:22:08.284Z,4.53
2018-02-14T12:24:39.969Z,4.88
2018-02-14T12:27:10.978Z,4.85
2018-02-14T12:29:41.713Z,5.00
2018-02-14T12:32:12.738Z,5.32
2018-02-14T12:34:43.577Z,5.54
2018-02-14T12:37:14.348Z,5.09
2018-02-14T12:39:45.407Z,5.57
2018-02-14T12:42:16.268Z,5.16
2018-02-14T12:44:47.085Z,5.35
2018-02-14T12:47:17.864Z,5.72
2018-02-14T12:49:48.662Z,5.42
2018-02-14T12:52:19.852Z,5.05
2018-02-14T12:54:50.615Z,5.15
2018-02-14T12:57:21.372Z,5.55
2018-02-14T12:59:52.276Z,5.51
2018-02-14T13:02:23.020Z,5.30
2018-02-14T13:04:53.767Z,5.49
2018-02-14T13:07:25.444Z,5.68
2018-02-14T13:09:57.368Z,5.59
2018-02-14T13:12:29.729Z,5.41
2018-02-14T13:15:02.225Z,5.46
2018-02-14T13:17:33.033Z,5.69
2018-02-14T13:20:03.850Z,5.64
2018-02-14T13:22:35.144Z,5.16
2018-02-14T13:25:06.055Z,5.56
2018-02-14T13:27:36.831Z,5.41
2018-02-14T13:30:08.028Z,5.06
2018-02-14T13:32:38.812Z,5.19
2018-02-14T13:35:09.717Z,4.82
2018-02-14T13:37:43.440Z,4.93
2018-02-14T13:40:14.263Z,5.00
2018-02-14T13:42:45.403Z,5.07
2018-02-14T13:45:16.270Z,4.87
2018-02-14T13:47:47.395Z,5.14
2018-02-14T13:50:18.536Z,4.99
2018-02-14T13:52:49.316Z,4.94
2018-02-14T13:55:20.092Z,4.83
2018-02-14T13:57:51.607Z,4.73
2018-02-14T14:00:22.467Z,4.57
2018-02-14T14:02:53.236Z,4.73
2018-02-14T14:05:24.420Z,4.86
2018-02-14T14:07:55.232Z,4.09
2018-02-14T14:10:26.344Z,4.41
2018-02-14T14:12:57.832Z,4.53
2018-02-14T14:15:28.599Z,4.58
2018-02-14T14:17:59.632Z,4.68
2018-02-14T14:23:05.220Z,4.52
2018-02-14T14:25:36.336Z,4.47
2018-02-14T14:28:09.228Z,4.42
2018-02-14T14:30:40.338Z,4.51
2018-02-14T14:33:11.360Z,4.51
2018-02-14T14:35:42.209Z,3.97
2018-02-14T14:38:13.264Z,4.07
2018-02-14T14:40:44.091Z,3.95
2018-02-14T14:43:14.819Z,4.26
2018-02-14T14:45:45.910Z,4.20
2018-02-14T14:48:16.876Z,4.14
2018-02-14T14:50:47.735Z,4.18
2018-02-14T14:53:19.064Z,4.28
2018-02-14T14:55:49.832Z,4.37
2018-02-14T14:58:20.812Z,4.08
2018-02-14T15:00:51.591Z,3.97
2018-02-14T15:03:22.395Z,4.06
2018-02-14T15:05:53.294Z,3.88
2018-02-14T15:08:24.087Z,3.90
2018-02-14T15:10:54.970Z,3.84
2018-02-14T15:13:26.037Z,3.77
2018-02-14T15:15:56.844Z,3.60
2018-02-14T15:18:28.044Z,3.74
2018-02-14T15:20:59.152Z,3.71
2018-02-14T15:23:29.920Z,3.67
2018-02-14T15:26:00.696Z,3.67
2018-02-14T15:28:31.799Z,3.75
2018-02-14T15:31:02.757Z,3.79
2018-02-14T15:33:34.000Z,3.90
2018-02-14T15:36:05.558Z,3.72
2018-02-14T15:38:36.750Z,3.68
2018-02-14T15:41:07.628Z,3.60
2018-02-14T15:43:38.328Z,3.55
2018-02-14T15:46:10.344Z,3.53
2018-02-14T15:48:41.151Z,3.46
2018-02-14T15:51:11.913Z,3.38
2018-02-14T15:53:42.934Z,3.43
2018-02-14T15:56:13.624Z,3.24
2018-02-14T15:58:44.844Z,3.31
2018-02-14T16:01:15.984Z,3.10
2018-02-14T16:03:46.795Z,3.33
2018-02-14T16:06:17.840Z,3.11
2018-02-14T16:08:48.639Z,2.83
2018-02-14T16:11:19.504Z,2.92
2018-02-14T16:13:50.485Z,3.19
2018-02-14T16:16:21.248Z,3.03
2018-02-14T16:18:52.081Z,3.06
2018-02-14T16:21:23.169Z,2.90
2018-02-14T16:23:53.976Z,3.04
2018-02-14T16:26:24.775Z,2.87
2018-02-14T16:28:55.824Z,2.70
2018-02-14T16:31:26.620Z,2.36
2018-02-14T16:33:57.546Z,2.43
2018-02-14T16:36:28.493Z,2.50
2018-02-14T16:38:59.744Z,2.64
2018-02-14T16:41:30.778Z,2.46
2018-02-14T16:44:01.604Z,2.47
2018-02-14T16:46:32.389Z,1.96
2018-02-14T16:49:03.228Z,2.35
2018-02-14T16:51:34.016Z,2.22
2018-02-14T16:54:05.192Z,2.32
2018-02-14T16:56:36.325Z,2.37
2018-02-14T16:59:07.124Z,2.31
2018-02-14T17:01:38.142Z,2.05
2018-02-14T17:04:09.157Z,2.10
2018-02-14T17:07:11.467Z,2.25
2018-02-14T17:09:42.319Z,2.37
2018-02-14T17:12:13.233Z,2.12
2018-02-14T17:14:44.328Z,1.80
2018-02-14T17:17:15.210Z,2.01
2018-02-14T17:19:46.014Z,2.05
2018-02-14T17:22:17.191Z,1.90
2018-02-14T17:24:48.074Z,2.21
2018-02-14T17:27:18.820Z,2.09
2018-02-14T17:29:49.904Z,2.15
2018-02-14T17:32:20.644Z,2.12
2018-02-14T17:34:51.456Z,1.98
2018-02-14T17:38:24.879Z,1.83
2018-02-14T17:40:55.792Z,1.80
2018-02-14T17:43:26.875Z,1.80
2018-02-14T17:45:57.696Z,1.65
2018-02-14T17:48:28.565Z,1.55
2018-02-14T17:50:59.705Z,1.62
2018-02-14T17:53:30.416Z,1.70
2018-02-14T17:56:01.174Z,1.61
2018-02-14T17:58:32.248Z,1.38
2018-02-14T18:01:03.162Z,1.49
2018-02-14T18:03:33.939Z,1.49
2018-02-14T18:06:04.941Z,1.18
2018-02-14T18:08:35.807Z,1.00
2018-02-14T18:11:06.659Z,0.97
2018-02-14T18:13:37.825Z,1.24
2018-02-14T18:16:12.933Z,0.98
2018-02-14T18:18:44.096Z,0.90
2018-02-14T18:21:14.901Z,1.16
2018-02-14T18:23:45.749Z,0.76
2018-02-14T18:26:16.827Z,0.83
2018-02-14T18:28:47.856Z,0.43
2018-02-14T18:31:18.772Z,0.48
2018-02-14T18:33:49.875Z,0.50
2018-02-14T18:36:20.876Z,0.41
2018-02-14T18:38:52.036Z,0.40
2018-02-14T18:41:22.921Z,0.25
2018-02-14T18:43:53.737Z,0.41
2018-02-14T18:46:24.927Z,0.59
2018-02-14T18:48:55.805Z,0.86
2018-02-14T18:51:26.613Z,0.66
2018-02-14T18:53:57.721Z,0.49
2018-02-14T18:56:28.605Z,0.37
2018-02-14T18:58:59.493Z,0.60
2018-02-14T19:01:30.623Z,0.31
2018-02-14T19:04:01.508Z,0.30
2018-02-14T19:06:32.443Z,0.34
2018-02-14T19:09:03.809Z,-0.02
2018-02-14T19:11:34.804Z,-0.22
2018-02-14T19:16:41.050Z,-0.62
2018-02-14T19:19:11.964Z,-0.30
2018-02-14T19:21:43.148Z,-0.52
2018-02-14T19:24:13.938Z,-0.41
2018-02-14T19:26:44.787Z,-0.20
2018-02-14T19:29:15.879Z,-0.02
2018-02-14T19:31:46.683Z,-0.20
2018-02-14T19:34:18.735Z,-0.26
2018-02-14T19:36:49.513Z,-0.36
2018-02-14T19:39:20.419Z,-0.16
2018-02-14T19:41:51.519Z,-0.18
2018-02-14T19:44:22.911Z,0.01
2018-02-14T19:46:54.668Z,-0.24
2018-02-14T19:49:25.840Z,-0.22
2018-02-14T19:51:56.732Z,-0.26
2018-02-14T19:54:28.136Z,-0.33
2018-02-14T19:57:01.628Z,-0.19
2018-02-14T19:59:32.555Z,-0.26
2018-02-14T20:02:04.027Z,-0.37
2018-02-14T20:04:34.918Z,-0.19
2018-02-14T20:07:05.723Z,-0.30
2018-02-14T20:09:36.918Z,-0.16
2018-02-14T20:12:07.856Z,-0.33
2018-02-14T20:14:38.851Z,-0.40
2018-02-14T20:17:10.179Z,-0.32
2018-02-14T20:19:40.984Z,-0.33
2018-02-14T20:22:12.567Z,-0.30
2018-02-14T20:24:43.585Z,-0.25
2018-02-14T20:27:14.855Z,-0.23
2018-02-14T20:29:46.052Z,-0.21
2018-02-14T20:32:17.552Z,-0.22
2018-02-14T20:34:48.604Z,-0.19
2018-02-14T20:37:19.780Z,-0.25
2018-02-14T20:39:51.016Z,-0.21
2018-02-14T20:42:21.882Z,-0.19
2018-02-14T20:44:53.020Z,-0.27
2018-02-14T20:47:23.907Z,-0.24
2018-02-14T20:49:55.301Z,-0.23
2018-02-14T20:52:26.944Z,-0.30
2018-02-14T20:54:58.008Z,-0.16
2018-02-14T20:57:29.112Z,-0.31
2018-02-14T20:59:59.872Z,-0.06
2018-02-14T21:02:31.155Z,-0.30
2018-02-14T21:05:02.301Z,-0.32
2018-02-14T21:07:33.196Z,-0.16
2018-02-14T21:10:04.055Z,-0.32
2018-02-14T21:12:35.561Z,-0.22
2018-02-14T21:15:06.353Z,-0.16
2018-02-14T21:17:37.372Z,-0.38
2018-02-14T21:20:08.597Z,-0.31
2018-02-14T21:22:39.564Z,-0.42
2018-02-14T21:25:11.541Z,-0.47
2018-02-14T21:27:42.301Z,-0.55
2018-02-14T21:30:13.728Z,-0.60
2018-02-14T21:32:45.200Z,-0.78
2018-02-14T21:35:16.048Z,-0.79
2018-02-14T21:37:46.860Z,-0.80
2018-02-14T21:40:17.876Z,-0.70
2018-02-14T21:42:48.652Z,-0.82
2018-02-14T21:45:19.332Z,-0.87
2018-02-14T21:47:50.060Z,-0.77
2018-02-14T21:50:20.846Z,-0.73
2018-02-14T21:52:52.355Z,-0.57
2018-02-14T21:55:23.510Z,-0.80
2018-02-14T21:57:54.323Z,-0.68
2018-02-14T22:00:25.857Z,-0.77
2018-02-14T22:02:57.172Z,-0.70
2018-02-14T22:05:28.016Z,-0.72
2018-02-14T22:07:58.851Z,-0.66
2018-02-14T22:10:30.383Z,-0.28
2018-02-14T22:13:02.958Z,-0.50
2018-02-14T22:15:34.032Z,-0.75
2018-02-14T22:18:04.795Z,-0.61
2018-02-14T22:20:35.594Z,-0.88
2018-02-14T22:23:06.844Z,-0.77
2018-02-14T22:25:37.663Z,-0.61
2018-02-14T22:28:08.535Z,-0.74
2018-02-14T22:30:39.545Z,-0.51
2018-02-14T22:33:10.468Z,-0.98
2018-02-14T22:35:41.438Z,-1.02
2018-02-14T22:38:12.679Z,-1.02
2018-02-14T22:40:43.463Z,-1.16
2018-02-14T22:43:14.272Z,-1.40
2018-02-14T22:45:45.815Z,-0.99
2018-02-14T22:48:16.662Z,-1.00
2018-02-14T22:50:47.751Z,-1.22
2018-02-14T22:53:18.517Z,-1.20
2018-02-14T22:55:49.279Z,-1.18
2018-02-14T22:58:20.143Z,-0.98
2018-02-14T23:00:50.931Z,-0.99
2018-02-14T23:03:24.404Z,-0.78
2018-02-14T23:05:55.752Z,-1.29
2018-02-14T23:08:27.228Z,-1.36
2018-02-14T23:10:58.307Z,-1.58
2018-02-14T23:13:29.148Z,-1.54
2018-02-14T23:16:00.058Z,-2.02
2018-02-14T23:18:31.719Z,-2.26
2018-02-14T23:21:02.473Z,-1.93
2018-02-14T23:23:33.323Z,-1.61
2018-02-14T23:26:04.502Z,-1.44
2018-02-14T23:28:35.278Z,-1.49
2018-02-14T23:31:06.087Z,-1.75
2018-02-14T23:33:37.170Z,-1.62
2018-02-14T23:36:08.063Z,-1.56
2018-02-14T23:38:39.412Z,-1.61
2018-02-14T23:41:10.488Z,-1.52
2018-02-14T23:43:41.536Z,-1.43
2018-02-14T23:46:12.592Z,-1.79
2018-02-14T23:48:44.106Z,-1.61
2018-02-14T23:51:14.910Z,-1.28
2018-02-14T23:53:45.907Z,-1.38
2018-02-14T23:56:17.090Z,-1.48
2018-02-14T23:58:48.283Z,-1.60
